Kezdőlap
METAR-TAF:

METAR-TAF

Repülőterek :

Lake County Airport

Leadville, Colorado, Amerikai Egyesült Államok

földrajzi szélesség: 39-13-41N, földrajzi hosszúság: 106-18-58W, magasság: 3026 m

Jelenlegi meteorológiai megfigyelések

A jelentés 1 órával és 11 perccel ezelõtt készült, 23:53 UTC
Déli szél 9 kt
Hőmérséklet 2°C
Páratartalom 51%
Légköri nyomás 1013 hPa
Látótávolság: 16.1 km
Kevés felhő 8000 lábon

METAR: KLXV 042353Z AUTO 18009KT 10SM FEW080 02/M07 A2991 RMK AO2 SLP077 T00171067 10050 20017 55003

Idő: 19:04 (01:04 UTC)


TAF: hiányzik

Meteorológiai megfigyelések és előrejelzések több, mint 4000 repülőtéren (METAR és TAF jelentéseket).

A térképen piros és sárga pontok jelzik az elérhető meteorológiai állomásokat.

Mozgassa az egeret a pont fölött, hogy megjelenjen az állomás neve.

Azután kattintson az időjárási megfigyelések és előrejelzések megtekintéséhez.

A térkép megváltoztatása: kattintson a fekete keresztel jelölt zöld gombra ráközelítéshez, a vonallal jelölt zöld gombra távolításhoz, vagy a zöld nyilakra a szomszédos térképek eléréséhez.


METAR-TAF: